createdAt,value
2017-12-05T00:00:58.721Z,95.10
2017-12-05T00:03:25.245Z,95.20
2017-12-05T00:05:52.225Z,95.30
2017-12-05T00:08:19.070Z,95.30
2017-12-05T00:10:45.658Z,95.20
2017-12-05T00:13:12.325Z,95.00
2017-12-05T00:15:38.913Z,94.80
2017-12-05T00:18:05.505Z,94.80
2017-12-05T00:20:32.121Z,94.90
2017-12-05T00:22:58.660Z,95.00
2017-12-05T00:25:25.219Z,94.90
2017-12-05T00:27:51.906Z,94.70
2017-12-05T00:30:18.482Z,94.70
2017-12-05T00:32:45.406Z,94.90
2017-12-05T00:35:12.043Z,94.90
2017-12-05T00:37:38.601Z,95.00
2017-12-05T00:40:05.168Z,95.10
2017-12-05T00:42:31.829Z,95.30
2017-12-05T00:44:58.798Z,95.50
2017-12-05T00:47:25.858Z,95.40
2017-12-05T00:49:52.842Z,95.50
2017-12-05T00:52:19.397Z,95.50
2017-12-05T00:54:45.926Z,95.50
2017-12-05T00:57:12.514Z,95.60
2017-12-05T00:59:39.058Z,95.50
2017-12-05T01:02:05.599Z,95.40
2017-12-05T01:04:32.283Z,95.30
2017-12-05T01:07:01.702Z,95.10
2017-12-05T01:09:28.605Z,95.20
2017-12-05T01:11:55.181Z,95.20
2017-12-05T01:14:21.731Z,95.00
2017-12-05T01:16:48.265Z,94.70
2017-12-05T01:19:14.952Z,94.40
2017-12-05T01:21:41.862Z,94.70
2017-12-05T01:24:08.418Z,94.70
2017-12-05T01:26:35.106Z,94.70
2017-12-05T01:29:02.015Z,94.70
2017-12-05T01:31:28.585Z,94.70
2017-12-05T01:33:55.186Z,94.60
2017-12-05T01:36:21.738Z,94.70
2017-12-05T01:38:48.298Z,94.80
2017-12-05T01:41:15.037Z,94.80
2017-12-05T01:43:41.630Z,94.80
2017-12-05T01:46:08.156Z,94.80
2017-12-05T01:48:34.805Z,94.90
2017-12-05T01:51:01.385Z,94.80
2017-12-05T01:53:28.015Z,94.70
2017-12-05T01:55:54.697Z,94.40
2017-12-05T01:58:21.737Z,94.40
2017-12-05T02:00:48.413Z,94.30
2017-12-05T02:03:15.405Z,94.40
2017-12-05T02:05:42.002Z,94.40
2017-12-05T02:08:08.645Z,94.40
2017-12-05T02:10:35.461Z,94.20
2017-12-05T02:13:02.009Z,94.20
2017-12-05T02:15:28.572Z,94.00
2017-12-05T02:17:55.606Z,93.90
2017-12-05T02:20:22.226Z,93.90
2017-12-05T02:22:48.829Z,94.00
2017-12-05T02:25:15.440Z,94.10
2017-12-05T02:27:41.990Z,94.10
2017-12-05T02:30:08.539Z,94.10
2017-12-05T02:32:35.154Z,94.20
2017-12-05T02:35:02.057Z,94.10
2017-12-05T02:37:28.601Z,94.10
2017-12-05T02:39:55.215Z,94.10
2017-12-05T02:42:22.113Z,94.00
2017-12-05T02:44:48.686Z,94.00
2017-12-05T02:47:15.315Z,93.90
2017-12-05T02:49:41.927Z,93.80
2017-12-05T02:52:08.526Z,93.90
2017-12-05T02:54:35.162Z,93.80
2017-12-05T02:57:01.758Z,94.00
2017-12-05T02:59:28.785Z,93.70
2017-12-05T03:01:55.430Z,93.70
2017-12-05T03:04:21.977Z,93.60
2017-12-05T03:06:48.586Z,93.70
2017-12-05T03:09:15.270Z,93.70
2017-12-05T03:11:41.877Z,93.60
2017-12-05T03:14:08.450Z,93.80
2017-12-05T03:16:35.109Z,93.80
2017-12-05T03:19:01.710Z,93.60
2017-12-05T03:21:35.843Z,93.70
2017-12-05T03:24:02.404Z,93.70
2017-12-05T03:26:28.941Z,93.80
2017-12-05T03:28:55.558Z,93.70
2017-12-05T03:31:22.112Z,93.70
2017-12-05T03:33:49.038Z,93.70
2017-12-05T03:36:15.642Z,93.70
2017-12-05T03:38:42.169Z,93.70
2017-12-05T03:41:09.089Z,93.70
2017-12-05T03:43:35.686Z,93.70
2017-12-05T03:46:02.687Z,93.70
2017-12-05T03:48:29.290Z,93.50
2017-12-05T03:50:55.925Z,93.40
2017-12-05T03:53:22.474Z,93.40
2017-12-05T03:55:49.389Z,93.40
2017-12-05T03:58:16.009Z,93.40
2017-12-05T04:00:42.567Z,93.20
2017-12-05T04:03:09.089Z,93.00
2017-12-05T04:05:35.678Z,93.00
2017-12-05T04:08:02.237Z,93.00
2017-12-05T04:10:35.834Z,92.80
2017-12-05T04:13:02.410Z,92.80
2017-12-05T04:15:28.962Z,92.90
2017-12-05T04:17:55.620Z,93.00
2017-12-05T04:20:22.551Z,92.50
2017-12-05T04:22:49.089Z,92.50
2017-12-05T04:25:15.703Z,92.50
2017-12-05T04:27:42.250Z,92.50
2017-12-05T04:30:08.794Z,92.50
2017-12-05T04:32:35.457Z,92.50
2017-12-05T04:35:02.011Z,92.50
2017-12-05T04:37:28.577Z,92.40
2017-12-05T04:39:55.198Z,92.40
2017-12-05T04:42:21.798Z,92.30
2017-12-05T04:44:55.856Z,91.90
2017-12-05T04:47:22.420Z,91.90
2017-12-05T04:49:48.998Z,92.00
2017-12-05T04:52:15.718Z,91.90
2017-12-05T04:54:42.341Z,92.20
2017-12-05T04:57:08.970Z,92.20
2017-12-05T04:59:35.986Z,92.00
2017-12-05T05:02:02.645Z,92.00
2017-12-05T05:04:29.234Z,92.00
2017-12-05T05:06:56.248Z,92.00
2017-12-05T05:09:22.845Z,92.00
2017-12-05T05:11:49.431Z,91.80
2017-12-05T05:14:16.010Z,91.60
2017-12-05T05:16:42.622Z,91.60
2017-12-05T05:19:09.202Z,91.50
2017-12-05T05:21:35.885Z,91.50
2017-12-05T05:24:02.858Z,91.60
2017-12-05T05:26:29.468Z,91.60
2017-12-05T05:28:56.106Z,91.70
2017-12-05T05:31:22.672Z,91.70
2017-12-05T05:33:49.617Z,91.90
2017-12-05T05:36:31.090Z,91.90
2017-12-05T05:38:57.634Z,92.00
2017-12-05T05:41:24.362Z,91.80
2017-12-05T05:43:51.046Z,91.90
2017-12-05T05:46:17.650Z,91.90
2017-12-05T05:48:44.198Z,91.70
2017-12-05T05:51:10.833Z,91.50
2017-12-05T05:53:37.748Z,91.40
2017-12-05T05:56:04.289Z,91.40
2017-12-05T05:58:30.975Z,91.30
2017-12-05T06:00:57.890Z,91.30
2017-12-05T06:03:24.432Z,91.20
2017-12-05T06:05:51.049Z,91.30
2017-12-05T06:08:17.587Z,91.30
2017-12-05T06:10:44.494Z,91.40
2017-12-05T06:13:11.084Z,91.40
2017-12-05T06:15:38.002Z,91.30
2017-12-05T06:18:04.553Z,91.30
2017-12-05T06:20:31.134Z,91.40
2017-12-05T06:22:58.318Z,91.60
2017-12-05T06:25:24.961Z,91.60
2017-12-05T06:27:51.550Z,91.70
2017-12-05T06:30:18.129Z,91.70
2017-12-05T06:32:45.034Z,91.70
2017-12-05T06:35:11.641Z,91.70
2017-12-05T06:37:38.642Z,91.60
2017-12-05T06:40:05.185Z,91.60
2017-12-05T06:42:31.777Z,91.40
2017-12-05T06:44:58.369Z,91.40
2017-12-05T06:47:24.934Z,91.20
2017-12-05T06:49:51.650Z,91.10
2017-12-05T06:52:18.314Z,91.20
2017-12-05T06:54:44.930Z,91.20
2017-12-05T06:57:11.673Z,91.10
2017-12-05T06:59:38.294Z,90.80
2017-12-05T07:02:04.905Z,90.80
2017-12-05T07:04:31.626Z,90.80
2017-12-05T07:06:58.238Z,90.40
2017-12-05T07:09:24.889Z,90.30
2017-12-05T07:11:51.543Z,90.00
2017-12-05T07:14:18.978Z,89.70
2017-12-05T07:16:45.569Z,89.60
2017-12-05T07:19:12.251Z,89.00
2017-12-05T07:21:39.231Z,89.20
2017-12-05T07:24:05.862Z,89.20
2017-12-05T07:26:32.918Z,89.30
2017-12-05T07:28:59.890Z,89.00
2017-12-05T07:31:26.934Z,89.00
2017-12-05T07:33:53.950Z,88.50
2017-12-05T07:36:20.558Z,88.50
2017-12-05T07:38:47.157Z,88.60
2017-12-05T07:41:13.842Z,88.50
2017-12-05T07:43:40.806Z,88.10
2017-12-05T07:46:07.438Z,88.10
2017-12-05T07:48:34.506Z,87.80
2017-12-05T07:51:01.449Z,87.60
2017-12-05T07:53:28.306Z,87.60
2017-12-05T07:55:54.954Z,87.80
2017-12-05T07:58:21.559Z,87.30
2017-12-05T08:00:48.174Z,87.50
2017-12-05T08:03:14.821Z,87.10
2017-12-05T08:05:41.842Z,87.20
2017-12-05T08:08:08.446Z,87.20
2017-12-05T08:10:35.082Z,87.10
2017-12-05T08:13:01.690Z,86.90
2017-12-05T08:15:28.314Z,86.90
2017-12-05T08:17:54.958Z,86.80
2017-12-05T08:20:21.561Z,85.80
2017-12-05T08:22:48.578Z,85.80
2017-12-05T08:25:15.377Z,85.80
2017-12-05T08:27:42.362Z,85.70
2017-12-05T08:30:08.981Z,85.70
2017-12-05T08:32:36.026Z,86.20
2017-12-05T08:35:03.014Z,86.20
2017-12-05T08:37:29.626Z,86.20
2017-12-05T08:39:56.282Z,85.70
2017-12-05T08:42:23.323Z,84.90
2017-12-05T08:44:49.918Z,84.90
2017-12-05T08:47:16.562Z,85.10
2017-12-05T08:49:43.138Z,83.80
2017-12-05T08:52:09.689Z,84.30
2017-12-05T08:54:36.362Z,84.30
2017-12-05T08:57:02.987Z,83.70
2017-12-05T08:59:29.582Z,83.70
2017-12-05T09:01:56.625Z,83.70
2017-12-05T09:04:23.245Z,83.80
2017-12-05T09:06:49.837Z,83.30
2017-12-05T09:09:16.870Z,81.80
2017-12-05T09:11:43.493Z,81.80
2017-12-05T09:14:10.138Z,82.90
2017-12-05T09:16:36.834Z,83.40
2017-12-05T09:19:03.449Z,82.00
2017-12-05T09:21:30.066Z,81.70
2017-12-05T09:23:56.730Z,81.80
2017-12-05T09:26:23.374Z,81.70
2017-12-05T09:28:49.970Z,81.60
2017-12-05T09:31:16.630Z,81.60
2017-12-05T09:33:43.217Z,82.50
2017-12-05T09:36:09.858Z,81.40
2017-12-05T09:38:36.626Z,81.70
2017-12-05T09:41:03.274Z,81.60
2017-12-05T09:43:30.321Z,81.40
2017-12-05T09:45:57.005Z,81.40
2017-12-05T09:48:23.614Z,80.60
2017-12-05T09:50:50.234Z,79.80
2017-12-05T09:53:16.870Z,80.30
2017-12-05T09:55:44.413Z,80.90
2017-12-05T09:58:11.020Z,80.40
2017-12-05T10:00:38.091Z,80.60
2017-12-05T10:03:04.698Z,80.60
2017-12-05T10:05:31.319Z,80.70
2017-12-05T10:07:57.967Z,80.90
2017-12-05T10:10:24.586Z,79.70
2017-12-05T10:12:51.247Z,79.90
2017-12-05T10:15:17.927Z,79.50
2017-12-05T10:17:44.598Z,80.10
2017-12-05T10:20:11.206Z,80.40
2017-12-05T10:22:37.906Z,80.10
2017-12-05T10:25:04.503Z,79.80
2017-12-05T10:27:31.182Z,79.60
2017-12-05T10:29:57.901Z,79.30
2017-12-05T10:32:24.572Z,80.20
2017-12-05T10:34:51.185Z,78.90
2017-12-05T10:37:17.876Z,79.60
2017-12-05T10:39:44.489Z,80.00
2017-12-05T10:42:11.109Z,79.20
2017-12-05T10:44:38.150Z,77.10
2017-12-05T10:47:05.037Z,77.10
2017-12-05T10:49:32.027Z,77.90
2017-12-05T10:51:58.685Z,77.90
2017-12-05T10:54:25.294Z,77.90
2017-12-05T10:56:52.257Z,78.00
2017-12-05T10:59:18.871Z,78.00
2017-12-05T11:01:45.490Z,77.00
2017-12-05T11:04:12.050Z,76.40
2017-12-05T11:06:38.767Z,75.80
2017-12-05T11:09:05.363Z,75.30
2017-12-05T11:11:31.998Z,74.60
2017-12-05T11:13:58.664Z,74.50
2017-12-05T11:16:25.455Z,74.20
2017-12-05T11:18:52.014Z,74.40
2017-12-05T11:21:18.730Z,73.60
2017-12-05T11:23:46.134Z,73.70
2017-12-05T11:26:12.741Z,73.60
2017-12-05T11:28:39.821Z,74.80
2017-12-05T11:31:06.425Z,74.80
2017-12-05T11:33:33.042Z,74.80
2017-12-05T11:35:59.659Z,73.60
2017-12-05T11:38:26.634Z,73.00
2017-12-05T11:40:53.182Z,73.00
2017-12-05T11:43:19.821Z,73.50
2017-12-05T11:45:46.417Z,73.70
2017-12-05T11:48:13.002Z,73.40
2017-12-05T11:50:39.998Z,72.80
2017-12-05T11:53:06.569Z,72.80
2017-12-05T11:55:33.142Z,72.60
2017-12-05T11:58:00.146Z,71.60
2017-12-05T12:00:26.776Z,71.60
2017-12-05T12:02:53.330Z,71.80
2017-12-05T12:05:19.981Z,71.90
2017-12-05T12:07:46.598Z,72.60
2017-12-05T12:10:13.162Z,72.30
2017-12-05T12:12:40.118Z,72.50
2017-12-05T12:15:07.037Z,71.80
2017-12-05T12:17:33.592Z,71.80
2017-12-05T12:20:00.186Z,72.60
2017-12-05T12:22:27.106Z,71.50
2017-12-05T12:24:53.642Z,71.40
2017-12-05T12:27:20.261Z,71.50
2017-12-05T12:29:46.802Z,71.60
2017-12-05T12:32:13.338Z,72.00
2017-12-05T12:34:39.930Z,71.70
2017-12-05T12:37:06.475Z,71.80
2017-12-05T12:39:33.073Z,73.00
2017-12-05T12:41:59.694Z,72.90
2017-12-05T12:44:26.297Z,72.80
2017-12-05T12:46:52.829Z,71.10
2017-12-05T12:49:19.430Z,71.80
2017-12-05T12:51:46.719Z,72.40
2017-12-05T12:54:13.330Z,72.40
2017-12-05T12:56:39.921Z,72.30
2017-12-05T12:59:06.465Z,72.60
2017-12-05T13:01:32.994Z,72.40
2017-12-05T13:04:00.002Z,71.70
2017-12-05T13:06:26.909Z,71.70
2017-12-05T13:08:53.842Z,72.30
2017-12-05T13:11:20.434Z,72.30
2017-12-05T13:13:47.067Z,71.70
2017-12-05T13:16:14.006Z,73.20
2017-12-05T13:18:40.690Z,73.20
2017-12-05T13:21:07.234Z,71.50
2017-12-05T13:23:33.847Z,72.30
2017-12-05T13:26:00.526Z,72.30
2017-12-05T13:28:27.568Z,72.00
2017-12-05T13:30:54.522Z,72.10
2017-12-05T13:33:21.138Z,72.10
2017-12-05T13:35:47.685Z,72.50
2017-12-05T13:38:14.227Z,72.10
2017-12-05T13:40:40.901Z,72.20
2017-12-05T13:43:07.446Z,72.60
2017-12-05T13:45:34.042Z,73.40
2017-12-05T13:48:00.670Z,73.60
2017-12-05T13:50:27.630Z,72.80
2017-12-05T13:52:54.634Z,73.30
2017-12-05T13:55:21.277Z,73.30
2017-12-05T13:57:47.855Z,73.40
2017-12-05T14:00:14.457Z,73.30
2017-12-05T14:02:41.154Z,72.80
2017-12-05T14:05:07.758Z,72.90
2017-12-05T14:07:34.371Z,73.40
2017-12-05T14:10:01.183Z,74.90
2017-12-05T14:12:27.766Z,75.30
2017-12-05T14:14:54.345Z,74.50
2017-12-05T14:17:21.022Z,73.50
2017-12-05T14:19:48.613Z,73.60
2017-12-05T14:22:15.229Z,73.80
2017-12-05T14:24:41.934Z,74.70
2017-12-05T14:27:08.946Z,74.30
2017-12-05T14:29:35.521Z,74.30
2017-12-05T14:32:02.174Z,75.10
2017-12-05T14:34:28.721Z,75.50
2017-12-05T14:36:55.339Z,74.50
2017-12-05T14:39:21.936Z,74.50
2017-12-05T14:41:48.874Z,75.30
2017-12-05T14:44:15.418Z,75.30
2017-12-05T14:46:42.034Z,76.00
2017-12-05T14:49:08.634Z,76.60
2017-12-05T14:51:35.603Z,77.00
2017-12-05T14:54:02.653Z,76.30
2017-12-05T14:56:29.629Z,76.10
2017-12-05T14:58:56.227Z,76.10
2017-12-05T15:01:22.886Z,76.20
2017-12-05T15:03:49.466Z,75.50
2017-12-05T15:06:16.393Z,75.50
2017-12-05T15:08:43.014Z,75.50
2017-12-05T15:11:09.567Z,76.20
2017-12-05T15:13:36.127Z,76.30
2017-12-05T15:16:02.773Z,76.40
2017-12-05T15:18:29.373Z,76.00
2017-12-05T15:20:55.954Z,75.60
2017-12-05T15:23:22.598Z,76.00
2017-12-05T15:25:49.187Z,76.50
2017-12-05T15:28:16.237Z,76.70
2017-12-05T15:30:42.878Z,76.60
2017-12-05T15:33:09.478Z,77.10
2017-12-05T15:35:36.097Z,77.20
2017-12-05T15:38:02.729Z,77.40
2017-12-05T15:40:29.319Z,77.40
2017-12-05T15:42:55.906Z,77.40
2017-12-05T15:45:22.611Z,77.50
2017-12-05T15:47:49.170Z,77.70
2017-12-05T15:50:15.762Z,78.00
2017-12-05T15:52:42.381Z,78.10
2017-12-05T15:55:15.850Z,77.90
2017-12-05T15:57:42.841Z,77.90
2017-12-05T16:00:09.446Z,77.90
2017-12-05T16:02:36.026Z,77.90
2017-12-05T16:05:02.661Z,77.90
2017-12-05T16:07:29.617Z,77.90
2017-12-05T16:09:56.547Z,77.80
2017-12-05T16:12:23.706Z,77.80
2017-12-05T16:14:50.274Z,78.00
2017-12-05T16:17:17.230Z,78.20
2017-12-05T16:19:44.228Z,78.10
2017-12-05T16:22:10.814Z,78.10
2017-12-05T16:24:37.414Z,78.30
2017-12-05T16:27:04.129Z,78.30
2017-12-05T16:29:30.855Z,78.30
2017-12-05T16:31:57.413Z,78.00
2017-12-05T16:34:24.057Z,77.90
2017-12-05T16:36:50.647Z,78.00
2017-12-05T16:39:17.206Z,77.80
2017-12-05T16:41:43.845Z,78.00
2017-12-05T16:44:10.398Z,78.00
2017-12-05T16:46:36.979Z,77.90
2017-12-05T16:49:03.673Z,77.40
2017-12-05T16:51:30.602Z,77.50
2017-12-05T16:53:57.206Z,77.50
2017-12-05T16:56:23.894Z,77.30
2017-12-05T16:58:50.478Z,76.50
2017-12-05T17:01:17.495Z,77.10
2017-12-05T17:03:44.247Z,77.10
2017-12-05T17:06:10.797Z,77.20
2017-12-05T17:08:37.551Z,77.20
2017-12-05T17:11:04.300Z,77.30
2017-12-05T17:13:30.950Z,77.70
2017-12-05T17:15:57.605Z,77.70
2017-12-05T17:18:24.350Z,77.80
2017-12-05T17:20:51.106Z,78.00
2017-12-05T17:23:17.750Z,77.90
2017-12-05T17:25:44.435Z,78.20
2017-12-05T17:28:11.429Z,78.30
2017-12-05T17:30:38.103Z,78.30
2017-12-05T17:33:04.860Z,78.50
2017-12-05T17:35:31.482Z,78.60
2017-12-05T17:37:58.159Z,78.60
2017-12-05T17:40:24.779Z,78.40
2017-12-05T17:42:51.313Z,78.60
2017-12-05T17:45:17.877Z,78.70
2017-12-05T17:47:44.659Z,79.00
2017-12-05T17:50:11.214Z,79.30
2017-12-05T17:52:37.838Z,79.30
2017-12-05T17:55:04.581Z,79.40
2017-12-05T17:57:31.221Z,79.70
2017-12-05T17:59:57.800Z,79.80
2017-12-05T18:02:24.419Z,79.90
2017-12-05T18:04:51.069Z,79.90
2017-12-05T18:07:17.845Z,79.70
2017-12-05T18:09:44.571Z,79.70
2017-12-05T18:12:11.630Z,79.50
2017-12-05T18:14:38.277Z,79.80
2017-12-05T18:17:04.901Z,79.60
2017-12-05T18:19:31.906Z,79.60
2017-12-05T18:21:58.527Z,79.60
2017-12-05T18:24:25.186Z,79.50
2017-12-05T18:26:51.798Z,79.80
2017-12-05T18:29:18.398Z,79.90
2017-12-05T18:31:45.203Z,80.30
2017-12-05T18:34:12.189Z,79.70
2017-12-05T18:36:38.814Z,79.70
2017-12-05T18:39:05.966Z,79.70
2017-12-05T18:41:32.935Z,80.40
2017-12-05T18:43:59.929Z,80.30
2017-12-05T18:46:26.618Z,80.40
2017-12-05T18:48:53.239Z,80.00
2017-12-05T18:51:19.819Z,80.30
2017-12-05T18:53:46.497Z,80.50
2017-12-05T18:56:13.115Z,80.50
2017-12-05T18:58:39.962Z,80.50
2017-12-05T19:01:06.711Z,80.50
2017-12-05T19:03:33.331Z,80.90
2017-12-05T19:05:59.954Z,81.00
2017-12-05T19:08:27.352Z,81.30
2017-12-05T19:10:53.966Z,81.40
2017-12-05T19:13:20.830Z,81.80
2017-12-05T19:15:54.586Z,82.00
2017-12-05T19:18:21.250Z,82.20
2017-12-05T19:20:47.907Z,82.60
2017-12-05T19:23:14.575Z,82.60
2017-12-05T19:25:41.570Z,82.70
2017-12-05T19:28:08.202Z,82.70
2017-12-05T19:30:34.971Z,82.90
2017-12-05T19:33:01.686Z,83.00
2017-12-05T19:35:28.658Z,83.10
2017-12-05T19:37:55.365Z,83.10
2017-12-05T19:40:21.979Z,83.10
2017-12-05T19:42:49.268Z,83.50
2017-12-05T19:45:15.941Z,83.50
2017-12-05T19:47:43.268Z,83.40
2017-12-05T19:50:11.167Z,83.10
2017-12-05T19:52:38.290Z,82.60
2017-12-05T19:55:05.003Z,82.60
2017-12-05T19:57:32.041Z,82.30
2017-12-05T19:59:59.674Z,82.30
2017-12-05T20:02:26.843Z,82.40
2017-12-05T20:04:53.607Z,82.60
2017-12-05T20:07:21.471Z,82.70
2017-12-05T20:09:48.211Z,82.90
2017-12-05T20:12:14.890Z,83.20
2017-12-05T20:14:41.640Z,83.40
2017-12-05T20:17:09.170Z,83.30
2017-12-05T20:19:35.798Z,83.20
2017-12-05T20:22:02.730Z,83.20
2017-12-05T20:24:29.503Z,83.50
2017-12-05T20:26:56.670Z,83.40
2017-12-05T20:29:24.347Z,83.30
2017-12-05T20:31:51.046Z,83.30
2017-12-05T20:34:19.663Z,83.50
2017-12-05T20:36:46.526Z,83.70
2017-12-05T20:39:13.413Z,83.70
2017-12-05T20:41:40.691Z,83.70
2017-12-05T20:44:08.720Z,83.50
2017-12-05T20:46:35.656Z,83.60
2017-12-05T20:49:02.508Z,83.20
2017-12-05T20:51:29.361Z,83.30
2017-12-05T20:53:56.103Z,83.30
2017-12-05T20:56:22.839Z,83.30
2017-12-05T20:58:49.934Z,83.20
2017-12-05T21:01:16.810Z,83.10
2017-12-05T21:03:43.766Z,83.30
2017-12-05T21:06:10.939Z,83.30
2017-12-05T21:08:37.798Z,83.30
2017-12-05T21:11:04.450Z,83.30
2017-12-05T21:13:31.319Z,83.20
2017-12-05T21:15:57.912Z,83.30
2017-12-05T21:18:24.449Z,83.40
2017-12-05T21:20:51.153Z,83.50
2017-12-05T21:23:18.069Z,83.50
2017-12-05T21:25:44.618Z,83.50
2017-12-05T21:28:11.222Z,83.50
2017-12-05T21:30:37.778Z,83.80
2017-12-05T21:33:04.356Z,84.10
2017-12-05T21:35:30.949Z,83.80
2017-12-05T21:37:57.874Z,83.40
2017-12-05T21:40:24.409Z,83.40
2017-12-05T21:42:51.234Z,83.50
2017-12-05T21:45:17.779Z,83.90
2017-12-05T21:47:44.391Z,84.10
2017-12-05T21:50:11.666Z,84.30
2017-12-05T21:52:38.503Z,84.30
2017-12-05T21:55:05.298Z,84.20
2017-12-05T21:57:32.160Z,84.50
2017-12-05T21:59:59.005Z,84.60
2017-12-05T22:02:25.824Z,84.70
2017-12-05T22:04:52.717Z,84.70
2017-12-05T22:07:19.504Z,84.60
2017-12-05T22:09:46.297Z,84.50
2017-12-05T22:12:13.361Z,84.50
2017-12-05T22:14:40.161Z,84.40
2017-12-05T22:17:06.936Z,84.50
2017-12-05T22:19:33.805Z,84.60
2017-12-05T22:22:01.009Z,84.40
2017-12-05T22:24:28.309Z,84.40
2017-12-05T22:26:55.187Z,84.40
2017-12-05T22:29:21.983Z,84.40
2017-12-05T22:31:48.786Z,84.20
2017-12-05T22:34:15.874Z,84.10
2017-12-05T22:36:42.669Z,84.10
2017-12-05T22:39:09.536Z,84.10
2017-12-05T22:41:36.495Z,84.10
2017-12-05T22:44:03.450Z,84.30
2017-12-05T22:46:30.517Z,84.30
2017-12-05T22:48:57.396Z,84.40
2017-12-05T22:51:24.684Z,84.30
2017-12-05T22:53:58.434Z,84.30
2017-12-05T22:56:25.231Z,84.40
2017-12-05T22:58:52.401Z,84.50
2017-12-05T23:01:19.351Z,84.50
2017-12-05T23:03:46.173Z,84.30
2017-12-05T23:06:12.978Z,84.50
2017-12-05T23:08:39.853Z,84.50
2017-12-05T23:11:06.645Z,84.40
2017-12-05T23:13:33.444Z,84.40
2017-12-05T23:16:00.034Z,84.60
2017-12-05T23:18:26.582Z,84.70
2017-12-05T23:20:53.117Z,85.10
2017-12-05T23:23:19.698Z,84.90
2017-12-05T23:25:46.606Z,84.70
2017-12-05T23:28:13.138Z,84.70
2017-12-05T23:30:39.777Z,84.90
2017-12-05T23:33:06.356Z,84.90
2017-12-05T23:35:32.890Z,84.90
2017-12-05T23:37:59.490Z,85.00
2017-12-05T23:40:26.394Z,85.00
2017-12-05T23:42:52.922Z,85.00
2017-12-05T23:45:19.641Z,85.00
2017-12-05T23:47:46.555Z,84.70
2017-12-05T23:50:13.168Z,84.70
2017-12-05T23:52:39.741Z,84.60
2017-12-05T23:55:06.325Z,84.50
2017-12-05T23:57:32.863Z,84.40
2017-12-05T23:59:59.465Z,84.40
